If you wish to contribute or participate in the discussions about articles you are invited to join SKYbrary as a registered user

 Actions

Conakry

From SKYbrary Wiki

GUCY
Airport
ICAO: GUCY
Summary
Name Conakry
Region Africa
Territory Guinea GN.gif
Location Conakry
Serving
Coordinates 9° 34' 36.80" N, 13° 36' 43.06" W
Runways
Designator Length Width Surface ROPS
6/24 3300 m10,826.772 ft <br /> 45 m147.638 ft <br /> ASP yes/yes


METAR
Observation GUCY 261400Z 20006KT 9999 SCT015 SCT110 28/24 Q1011 NOSIG
Station Conakry / Gbessia
Date/Time 26 October 2021 14:00:00
Wind direction 200°
Wind speed 06 kts
Lowest cloud amount scattered clouds
Temperature 28°C
Dew point 24°C
Humidity 78%
QNH 1011 hPa
Weather condition n/a


Conakry International Airport

ICAO: GUCY IATA: CKY

Description

International airport serving Conakry, Guinea.

Climatology

Tropical Monsoon climate (Köppen climate classification Am) - monthly mean temperatures above 18°C64.4 °F <br />291.15 K <br />524.07 °R <br /> in every month of the year and features wet and dry seasons. A tropical monsoon climate typically features less pronounced dry seasons than a tropical savanna climate and see less variance in temperatures during the course of the year. The driest month nearly always occurs at or soon after the "winter" solstice.

Maps

Terrain

Loading map...

Airport Layout

Loading map...


Accidents & Serious Incidents at or in vicinity of GUCY

None on SKYbrary